sensor_id;sensor_type;location;lat;lon;timestamp;P1;durP1;ratioP1;P2;durP2;ratioP2
71091;SDS011;58751;50.708;7.134;2022-12-07T00:01:56;24.43;;;14.63;;
71091;SDS011;58751;50.708;7.134;2022-12-07T00:04:21;21.67;;;13.33;;
71091;SDS011;58751;50.708;7.134;2022-12-07T00:06:50;26.20;;;16.07;;
71091;SDS011;58751;50.708;7.134;2022-12-07T00:09:17;22.17;;;14.25;;
71091;SDS011;58751;50.708;7.134;2022-12-07T00:11:42;20.65;;;14.73;;
71091;SDS011;58751;50.708;7.134;2022-12-07T00:14:10;22.03;;;15.53;;
71091;SDS011;58751;50.708;7.134;2022-12-07T00:16:35;27.10;;;15.40;;
71091;SDS011;58751;50.708;7.134;2022-12-07T00:19:00;25.30;;;14.43;;
71091;SDS011;58751;50.708;7.134;2022-12-07T00:21:26;24.23;;;16.30;;
71091;SDS011;58751;50.708;7.134;2022-12-07T00:23:52;22.40;;;13.70;;
71091;SDS011;58751;50.708;7.134;2022-12-07T00:26:20;23.30;;;14.17;;
71091;SDS011;58751;50.708;7.134;2022-12-07T00:28:46;21.98;;;15.07;;
71091;SDS011;58751;50.708;7.134;2022-12-07T00:31:12;24.80;;;13.80;;
71091;SDS011;58751;50.708;7.134;2022-12-07T00:33:37;23.07;;;15.07;;
71091;SDS011;58751;50.708;7.134;2022-12-07T00:36:03;28.50;;;16.67;;
71091;SDS011;58751;50.708;7.134;2022-12-07T00:38:31;25.25;;;13.00;;
71091;SDS011;58751;50.708;7.134;2022-12-07T00:40:56;25.13;;;13.63;;
71091;SDS011;58751;50.708;7.134;2022-12-07T00:43:23;20.67;;;13.77;;
71091;SDS011;58751;50.708;7.134;2022-12-07T00:45:49;25.35;;;15.77;;
71091;SDS011;58751;50.708;7.134;2022-12-07T00:48:14;29.37;;;16.70;;
71091;SDS011;58751;50.708;7.134;2022-12-07T00:50:39;23.63;;;15.20;;
71091;SDS011;58751;50.708;7.134;2022-12-07T00:53:04;23.93;;;15.03;;
71091;SDS011;58751;50.708;7.134;2022-12-07T00:55:32;20.90;;;14.63;;
71091;SDS011;58751;50.708;7.134;2022-12-07T00:57:57;20.60;;;14.82;;
71091;SDS011;58751;50.708;7.134;2022-12-07T01:00:24;28.17;;;17.00;;
71091;SDS011;58751;50.708;7.134;2022-12-07T01:02:49;21.88;;;15.23;;
71091;SDS011;58751;50.708;7.134;2022-12-07T01:05:14;22.50;;;14.47;;
71091;SDS011;58751;50.708;7.134;2022-12-07T01:07:39;20.93;;;14.07;;
71091;SDS011;58751;50.708;7.134;2022-12-07T01:10:05;18.07;;;12.90;;
71091;SDS011;58751;50.708;7.134;2022-12-07T01:12:30;26.10;;;15.60;;
71091;SDS011;58751;50.708;7.134;2022-12-07T01:14:56;21.07;;;14.10;;
71091;SDS011;58751;50.708;7.134;2022-12-07T01:17:22;23.80;;;14.60;;
71091;SDS011;58751;50.708;7.134;2022-12-07T01:19:47;20.80;;;14.45;;
71091;SDS011;58751;50.708;7.134;2022-12-07T01:22:13;23.43;;;14.50;;
71091;SDS011;58751;50.708;7.134;2022-12-07T01:24:38;18.93;;;15.23;;
71091;SDS011;58751;50.708;7.134;2022-12-07T01:27:03;17.93;;;14.67;;
71091;SDS011;58751;50.708;7.134;2022-12-07T01:29:28;20.23;;;14.87;;
71091;SDS011;58751;50.708;7.134;2022-12-07T01:31:53;21.70;;;15.30;;
71091;SDS011;58751;50.708;7.134;2022-12-07T01:34:20;22.13;;;14.53;;
71091;SDS011;58751;50.708;7.134;2022-12-07T01:36:45;21.33;;;14.80;;
71091;SDS011;58751;50.708;7.134;2022-12-07T01:39:10;20.27;;;14.53;;
71091;SDS011;58751;50.708;7.134;2022-12-07T01:41:37;20.17;;;13.67;;
71091;SDS011;58751;50.708;7.134;2022-12-07T01:44:16;19.50;;;14.38;;
71091;SDS011;58751;50.708;7.134;2022-12-07T01:46:42;19.20;;;13.32;;
71091;SDS011;58751;50.708;7.134;2022-12-07T01:49:08;17.38;;;13.43;;
71091;SDS011;58751;50.708;7.134;2022-12-07T01:51:36;17.88;;;14.40;;
71091;SDS011;58751;50.708;7.134;2022-12-07T01:54:02;18.40;;;13.32;;
71091;SDS011;58751;50.708;7.134;2022-12-07T01:56:27;19.80;;;15.13;;
71091;SDS011;58751;50.708;7.134;2022-12-07T01:58:54;20.52;;;15.10;;
71091;SDS011;58751;50.708;7.134;2022-12-07T02:01:19;19.17;;;14.20;;
71091;SDS011;58751;50.708;7.134;2022-12-07T02:03:45;20.60;;;14.87;;
71091;SDS011;58751;50.708;7.134;2022-12-07T02:06:11;22.40;;;16.13;;
71091;SDS011;58751;50.708;7.134;2022-12-07T02:08:38;24.05;;;15.18;;
71091;SDS011;58751;50.708;7.134;2022-12-07T02:11:04;24.20;;;15.23;;
71091;SDS011;58751;50.708;7.134;2022-12-07T02:13:30;23.00;;;15.10;;
71091;SDS011;58751;50.708;7.134;2022-12-07T02:16:09;21.77;;;14.73;;
71091;SDS011;58751;50.708;7.134;2022-12-07T02:18:41;21.80;;;14.23;;
71091;SDS011;58751;50.708;7.134;2022-12-07T02:21:10;27.25;;;16.25;;
71091;SDS011;58751;50.708;7.134;2022-12-07T02:23:40;23.90;;;16.77;;
71091;SDS011;58751;50.708;7.134;2022-12-07T02:26:19;24.58;;;16.80;;
71091;SDS011;58751;50.708;7.134;2022-12-07T02:28:55;22.13;;;14.77;;
71091;SDS011;58751;50.708;7.134;2022-12-07T02:31:23;28.92;;;16.60;;
71091;SDS011;58751;50.708;7.134;2022-12-07T02:33:50;23.88;;;16.88;;
71091;SDS011;58751;50.708;7.134;2022-12-07T02:36:18;30.55;;;18.00;;
71091;SDS011;58751;50.708;7.134;2022-12-07T02:38:46;23.00;;;16.08;;
71091;SDS011;58751;50.708;7.134;2022-12-07T02:41:13;28.45;;;16.52;;
71091;SDS011;58751;50.708;7.134;2022-12-07T02:43:42;23.83;;;15.55;;
71091;SDS011;58751;50.708;7.134;2022-12-07T02:46:12;25.40;;;16.88;;
71091;SDS011;58751;50.708;7.134;2022-12-07T02:48:39;25.27;;;17.83;;
71091;SDS011;58751;50.708;7.134;2022-12-07T02:51:04;23.90;;;17.50;;
71091;SDS011;58751;50.708;7.134;2022-12-07T02:53:33;29.83;;;17.90;;
71091;SDS011;58751;50.708;7.134;2022-12-07T02:55:59;25.40;;;18.23;;
71091;SDS011;58751;50.708;7.134;2022-12-07T02:58:30;26.08;;;17.05;;
71091;SDS011;58751;50.708;7.134;2022-12-07T03:00:58;21.45;;;16.63;;
71091;SDS011;58751;50.708;7.134;2022-12-07T03:03:28;26.67;;;16.60;;
71091;SDS011;58751;50.708;7.134;2022-12-07T03:06:03;24.13;;;16.75;;
71091;SDS011;58751;50.708;7.134;2022-12-07T03:08:36;25.63;;;15.73;;
71091;SDS011;58751;50.708;7.134;2022-12-07T03:11:02;26.75;;;17.30;;
71091;SDS011;58751;50.708;7.134;2022-12-07T03:13:29;25.42;;;16.98;;
71091;SDS011;58751;50.708;7.134;2022-12-07T03:15:56;28.58;;;18.73;;
71091;SDS011;58751;50.708;7.134;2022-12-07T03:18:24;26.55;;;18.00;;
71091;SDS011;58751;50.708;7.134;2022-12-07T03:20:52;30.23;;;18.70;;
71091;SDS011;58751;50.708;7.134;2022-12-07T03:23:18;30.23;;;18.83;;
71091;SDS011;58751;50.708;7.134;2022-12-07T03:25:45;24.10;;;16.50;;
71091;SDS011;58751;50.708;7.134;2022-12-07T03:28:10;26.52;;;17.75;;
71091;SDS011;58751;50.708;7.134;2022-12-07T03:30:37;17.60;;;14.90;;
71091;SDS011;58751;50.708;7.134;2022-12-07T03:33:05;26.73;;;17.52;;
71091;SDS011;58751;50.708;7.134;2022-12-07T03:35:33;25.73;;;17.15;;
71091;SDS011;58751;50.708;7.134;2022-12-07T03:38:02;23.65;;;17.80;;
71091;SDS011;58751;50.708;7.134;2022-12-07T03:40:30;31.85;;;18.05;;
71091;SDS011;58751;50.708;7.134;2022-12-07T03:42:57;25.17;;;16.95;;
71091;SDS011;58751;50.708;7.134;2022-12-07T03:45:24;23.45;;;16.58;;
71091;SDS011;58751;50.708;7.134;2022-12-07T03:47:53;22.00;;;16.48;;
71091;SDS011;58751;50.708;7.134;2022-12-07T03:50:21;33.30;;;18.08;;
71091;SDS011;58751;50.708;7.134;2022-12-07T03:52:52;26.45;;;18.70;;
71091;SDS011;58751;50.708;7.134;2022-12-07T03:55:20;29.20;;;17.75;;
71091;SDS011;58751;50.708;7.134;2022-12-07T03:57:47;21.75;;;15.93;;
71091;SDS011;58751;50.708;7.134;2022-12-07T04:00:15;25.85;;;17.17;;
71091;SDS011;58751;50.708;7.134;2022-12-07T04:02:40;22.27;;;16.67;;
71091;SDS011;58751;50.708;7.134;2022-12-07T04:05:06;25.47;;;17.93;;
71091;SDS011;58751;50.708;7.134;2022-12-07T04:07:32;25.00;;;17.37;;
71091;SDS011;58751;50.708;7.134;2022-12-07T04:09:57;20.50;;;16.07;;
71091;SDS011;58751;50.708;7.134;2022-12-07T04:12:23;23.87;;;17.70;;
71091;SDS011;58751;50.708;7.134;2022-12-07T04:14:49;27.08;;;17.15;;
71091;SDS011;58751;50.708;7.134;2022-12-07T04:17:14;29.30;;;17.03;;
71091;SDS011;58751;50.708;7.134;2022-12-07T04:19:39;25.03;;;16.47;;
71091;SDS011;58751;50.708;7.134;2022-12-07T04:22:05;26.87;;;17.43;;
71091;SDS011;58751;50.708;7.134;2022-12-07T04:24:30;27.80;;;16.60;;
71091;SDS011;58751;50.708;7.134;2022-12-07T04:26:55;23.70;;;17.17;;
71091;SDS011;58751;50.708;7.134;2022-12-07T04:29:22;25.20;;;16.90;;
71091;SDS011;58751;50.708;7.134;2022-12-07T04:31:47;27.02;;;17.48;;
71091;SDS011;58751;50.708;7.134;2022-12-07T04:34:13;29.60;;;18.03;;
71091;SDS011;58751;50.708;7.134;2022-12-07T04:36:38;24.60;;;15.27;;
71091;SDS011;58751;50.708;7.134;2022-12-07T04:39:04;27.87;;;18.10;;
71091;SDS011;58751;50.708;7.134;2022-12-07T04:41:30;25.43;;;17.33;;
71091;SDS011;58751;50.708;7.134;2022-12-07T04:43:55;29.60;;;17.10;;
71091;SDS011;58751;50.708;7.134;2022-12-07T04:46:22;26.70;;;16.20;;
71091;SDS011;58751;50.708;7.134;2022-12-07T04:48:48;24.30;;;17.13;;
71091;SDS011;58751;50.708;7.134;2022-12-07T04:51:13;27.03;;;17.10;;
71091;SDS011;58751;50.708;7.134;2022-12-07T04:53:39;24.05;;;16.25;;
71091;SDS011;58751;50.708;7.134;2022-12-07T04:56:04;23.93;;;16.30;;
71091;SDS011;58751;50.708;7.134;2022-12-07T04:58:29;27.93;;;18.57;;
71091;SDS011;58751;50.708;7.134;2022-12-07T05:00:54;26.33;;;18.50;;
71091;SDS011;58751;50.708;7.134;2022-12-07T05:03:21;30.77;;;16.70;;
71091;SDS011;58751;50.708;7.134;2022-12-07T05:05:46;25.13;;;17.73;;
71091;SDS011;58751;50.708;7.134;2022-12-07T05:08:11;27.37;;;18.27;;
71091;SDS011;58751;50.708;7.134;2022-12-07T05:10:37;26.33;;;17.90;;
71091;SDS011;58751;50.708;7.134;2022-12-07T05:13:02;26.20;;;16.60;;
71091;SDS011;58751;50.708;7.134;2022-12-07T05:15:27;24.60;;;16.67;;
71091;SDS011;58751;50.708;7.134;2022-12-07T05:17:52;22.10;;;17.20;;
71091;SDS011;58751;50.708;7.134;2022-12-07T05:20:19;27.10;;;15.63;;
71091;SDS011;58751;50.708;7.134;2022-12-07T05:22:44;24.23;;;17.20;;
71091;SDS011;58751;50.708;7.134;2022-12-07T05:25:09;21.00;;;14.93;;
71091;SDS011;58751;50.708;7.134;2022-12-07T05:27:34;25.60;;;16.43;;
71091;SDS011;58751;50.708;7.134;2022-12-07T05:30:00;21.57;;;14.43;;
71091;SDS011;58751;50.708;7.134;2022-12-07T05:32:25;26.70;;;17.10;;
71091;SDS011;58751;50.708;7.134;2022-12-07T05:34:50;35.40;;;18.37;;
71091;SDS011;58751;50.708;7.134;2022-12-07T05:37:17;25.23;;;14.80;;
71091;SDS011;58751;50.708;7.134;2022-12-07T05:39:42;23.67;;;15.55;;
71091;SDS011;58751;50.708;7.134;2022-12-07T05:42:07;22.13;;;15.60;;
71091;SDS011;58751;50.708;7.134;2022-12-07T05:44:33;26.23;;;14.67;;
71091;SDS011;58751;50.708;7.134;2022-12-07T05:46:58;21.27;;;14.10;;
71091;SDS011;58751;50.708;7.134;2022-12-07T05:49:23;27.87;;;17.00;;
71091;SDS011;58751;50.708;7.134;2022-12-07T05:51:48;25.13;;;16.33;;
71091;SDS011;58751;50.708;7.134;2022-12-07T05:54:15;22.93;;;16.23;;
71091;SDS011;58751;50.708;7.134;2022-12-07T05:56:40;23.27;;;14.52;;
71091;SDS011;58751;50.708;7.134;2022-12-07T05:59:05;23.57;;;15.93;;
71091;SDS011;58751;50.708;7.134;2022-12-07T06:01:31;23.80;;;14.30;;
71091;SDS011;58751;50.708;7.134;2022-12-07T06:03:56;22.83;;;14.07;;
71091;SDS011;58751;50.708;7.134;2022-12-07T06:06:21;26.07;;;16.90;;
71091;SDS011;58751;50.708;7.134;2022-12-07T06:08:46;32.30;;;16.33;;
71091;SDS011;58751;50.708;7.134;2022-12-07T06:11:13;27.60;;;15.30;;
71091;SDS011;58751;50.708;7.134;2022-12-07T06:13:38;23.50;;;16.20;;
71091;SDS011;58751;50.708;7.134;2022-12-07T06:16:03;25.60;;;16.33;;
71091;SDS011;58751;50.708;7.134;2022-12-07T06:18:29;24.37;;;15.17;;
71091;SDS011;58751;50.708;7.134;2022-12-07T06:20:54;25.07;;;16.07;;
71091;SDS011;58751;50.708;7.134;2022-12-07T06:23:19;22.97;;;16.13;;
71091;SDS011;58751;50.708;7.134;2022-12-07T06:25:45;25.07;;;14.83;;
71091;SDS011;58751;50.708;7.134;2022-12-07T06:28:11;23.50;;;14.77;;
71091;SDS011;58751;50.708;7.134;2022-12-07T06:30:36;22.15;;;14.65;;
71091;SDS011;58751;50.708;7.134;2022-12-07T06:33:01;22.67;;;15.57;;
71091;SDS011;58751;50.708;7.134;2022-12-07T06:35:27;24.73;;;16.23;;
71091;SDS011;58751;50.708;7.134;2022-12-07T06:37:52;24.97;;;16.33;;
71091;SDS011;58751;50.708;7.134;2022-12-07T06:40:17;21.17;;;14.97;;
71091;SDS011;58751;50.708;7.134;2022-12-07T06:42:42;22.80;;;14.87;;
71091;SDS011;58751;50.708;7.134;2022-12-07T06:45:09;24.43;;;15.87;;
71091;SDS011;58751;50.708;7.134;2022-12-07T06:47:35;26.67;;;14.52;;
71091;SDS011;58751;50.708;7.134;2022-12-07T06:50:00;23.63;;;14.73;;
71091;SDS011;58751;50.708;7.134;2022-12-07T06:52:25;21.83;;;14.07;;
71091;SDS011;58751;50.708;7.134;2022-12-07T06:54:50;25.73;;;15.70;;
71091;SDS011;58751;50.708;7.134;2022-12-07T06:57:15;21.80;;;13.07;;
71091;SDS011;58751;50.708;7.134;2022-12-07T06:59:41;27.77;;;15.70;;
71091;SDS011;58751;50.708;7.134;2022-12-07T07:02:08;23.70;;;14.60;;
71091;SDS011;58751;50.708;7.134;2022-12-07T07:04:33;22.63;;;13.90;;
71091;SDS011;58751;50.708;7.134;2022-12-07T07:06:58;30.63;;;14.87;;
71091;SDS011;58751;50.708;7.134;2022-12-07T07:09:24;21.67;;;15.73;;
71091;SDS011;58751;50.708;7.134;2022-12-07T07:11:49;28.90;;;14.77;;
71091;SDS011;58751;50.708;7.134;2022-12-07T07:14:14;21.13;;;15.93;;
71091;SDS011;58751;50.708;7.134;2022-12-07T07:16:39;21.27;;;14.20;;
71091;SDS011;58751;50.708;7.134;2022-12-07T07:19:06;24.93;;;15.40;;
71091;SDS011;58751;50.708;7.134;2022-12-07T07:21:31;19.75;;;13.85;;
71091;SDS011;58751;50.708;7.134;2022-12-07T07:23:56;25.27;;;14.50;;
71091;SDS011;58751;50.708;7.134;2022-12-07T07:26:21;19.90;;;14.20;;
71091;SDS011;58751;50.708;7.134;2022-12-07T07:28:46;23.87;;;14.90;;
71091;SDS011;58751;50.708;7.134;2022-12-07T07:31:12;22.17;;;13.57;;
71091;SDS011;58751;50.708;7.134;2022-12-07T07:33:37;19.60;;;11.17;;
71091;SDS011;58751;50.708;7.134;2022-12-07T07:36:04;19.00;;;12.47;;
71091;SDS011;58751;50.708;7.134;2022-12-07T07:38:29;18.80;;;11.60;;
71091;SDS011;58751;50.708;7.134;2022-12-07T07:40:55;17.80;;;13.30;;
71091;SDS011;58751;50.708;7.134;2022-12-07T07:43:20;19.50;;;11.90;;
71091;SDS011;58751;50.708;7.134;2022-12-07T07:45:45;19.77;;;11.90;;
71091;SDS011;58751;50.708;7.134;2022-12-07T07:48:10;19.77;;;13.03;;
71091;SDS011;58751;50.708;7.134;2022-12-07T07:50:35;17.53;;;11.97;;
71091;SDS011;58751;50.708;7.134;2022-12-07T07:53:02;18.03;;;13.50;;
71091;SDS011;58751;50.708;7.134;2022-12-07T07:55:27;23.63;;;14.38;;
71091;SDS011;58751;50.708;7.134;2022-12-07T07:57:53;15.63;;;11.70;;
71091;SDS011;58751;50.708;7.134;2022-12-07T08:00:19;19.13;;;13.13;;
71091;SDS011;58751;50.708;7.134;2022-12-07T08:02:44;16.60;;;13.00;;
71091;SDS011;58751;50.708;7.134;2022-12-07T08:05:09;22.03;;;13.17;;
71091;SDS011;58751;50.708;7.134;2022-12-07T08:07:35;22.30;;;13.70;;
71091;SDS011;58751;50.708;7.134;2022-12-07T08:10:01;23.13;;;13.50;;
71091;SDS011;58751;50.708;7.134;2022-12-07T08:12:27;24.17;;;15.98;;
71091;SDS011;58751;50.708;7.134;2022-12-07T08:14:52;21.50;;;12.80;;
71091;SDS011;58751;50.708;7.134;2022-12-07T08:17:17;22.60;;;12.80;;
71091;SDS011;58751;50.708;7.134;2022-12-07T08:19:42;19.93;;;11.93;;
71091;SDS011;58751;50.708;7.134;2022-12-07T08:22:08;23.97;;;15.07;;
71091;SDS011;58751;50.708;7.134;2022-12-07T08:24:33;19.30;;;13.30;;
71091;SDS011;58751;50.708;7.134;2022-12-07T08:27:00;21.10;;;13.47;;
71091;SDS011;58751;50.708;7.134;2022-12-07T08:29:25;19.55;;;14.18;;
71091;SDS011;58751;50.708;7.134;2022-12-07T08:31:50;20.10;;;14.47;;
71091;SDS011;58751;50.708;7.134;2022-12-07T08:34:15;24.83;;;14.93;;
71091;SDS011;58751;50.708;7.134;2022-12-07T08:36:41;22.07;;;14.13;;
71091;SDS011;58751;50.708;7.134;2022-12-07T08:39:06;18.83;;;12.67;;
71091;SDS011;58751;50.708;7.134;2022-12-07T08:41:31;23.20;;;12.67;;
71091;SDS011;58751;50.708;7.134;2022-12-07T08:43:58;24.70;;;14.23;;
71091;SDS011;58751;50.708;7.134;2022-12-07T08:46:23;21.02;;;14.07;;
71091;SDS011;58751;50.708;7.134;2022-12-07T08:48:51;19.52;;;12.82;;
71091;SDS011;58751;50.708;7.134;2022-12-07T08:51:17;17.83;;;13.70;;
71091;SDS011;58751;50.708;7.134;2022-12-07T08:53:42;16.70;;;11.93;;
71091;SDS011;58751;50.708;7.134;2022-12-07T08:56:08;18.20;;;11.37;;
71091;SDS011;58751;50.708;7.134;2022-12-07T08:58:34;17.23;;;11.23;;
71091;SDS011;58751;50.708;7.134;2022-12-07T09:01:01;20.83;;;12.77;;
71091;SDS011;58751;50.708;7.134;2022-12-07T09:03:26;23.80;;;12.73;;
71091;SDS011;58751;50.708;7.134;2022-12-07T09:05:51;23.70;;;12.10;;
71091;SDS011;58751;50.708;7.134;2022-12-07T09:08:17;18.83;;;10.77;;
71091;SDS011;58751;50.708;7.134;2022-12-07T09:10:42;14.27;;;10.10;;
71091;SDS011;58751;50.708;7.134;2022-12-07T09:13:07;17.90;;;10.97;;
71091;SDS011;58751;50.708;7.134;2022-12-07T09:15:33;17.63;;;11.70;;
71091;SDS011;58751;50.708;7.134;2022-12-07T09:17:59;20.80;;;12.20;;
71091;SDS011;58751;50.708;7.134;2022-12-07T09:20:24;12.98;;;9.27;;
71091;SDS011;58751;50.708;7.134;2022-12-07T09:22:49;17.93;;;9.80;;
71091;SDS011;58751;50.708;7.134;2022-12-07T09:25:15;23.97;;;9.97;;
71091;SDS011;58751;50.708;7.134;2022-12-07T09:27:40;16.60;;;12.47;;
71091;SDS011;58751;50.708;7.134;2022-12-07T09:30:06;14.77;;;9.70;;
71091;SDS011;58751;50.708;7.134;2022-12-07T09:32:31;13.43;;;9.10;;
71091;SDS011;58751;50.708;7.134;2022-12-07T09:34:58;14.30;;;8.97;;
71091;SDS011;58751;50.708;7.134;2022-12-07T09:37:23;14.98;;;9.30;;
71091;SDS011;58751;50.708;7.134;2022-12-07T09:39:48;15.77;;;9.40;;
71091;SDS011;58751;50.708;7.134;2022-12-07T09:42:18;15.17;;;9.37;;
71091;SDS011;58751;50.708;7.134;2022-12-07T09:44:48;16.15;;;8.65;;
71091;SDS011;58751;50.708;7.134;2022-12-07T09:47:13;14.67;;;8.40;;
71091;SDS011;58751;50.708;7.134;2022-12-07T09:49:38;15.13;;;9.00;;
71091;SDS011;58751;50.708;7.134;2022-12-07T09:52:16;14.77;;;8.80;;
71091;SDS011;58751;50.708;7.134;2022-12-07T09:54:43;12.52;;;8.90;;
71091;SDS011;58751;50.708;7.134;2022-12-07T09:57:10;12.23;;;8.55;;
71091;SDS011;58751;50.708;7.134;2022-12-07T09:59:35;13.83;;;7.40;;
71091;SDS011;58751;50.708;7.134;2022-12-07T10:02:16;15.07;;;8.70;;
71091;SDS011;58751;50.708;7.134;2022-12-07T10:04:42;12.07;;;7.57;;
71091;SDS011;58751;50.708;7.134;2022-12-07T10:07:10;14.82;;;8.00;;
71091;SDS011;58751;50.708;7.134;2022-12-07T10:09:35;11.80;;;8.50;;
71091;SDS011;58751;50.708;7.134;2022-12-07T10:12:01;9.77;;;6.80;;
71091;SDS011;58751;50.708;7.134;2022-12-07T10:14:27;13.05;;;8.48;;
71091;SDS011;58751;50.708;7.134;2022-12-07T10:16:53;12.77;;;7.90;;
71091;SDS011;58751;50.708;7.134;2022-12-07T10:19:20;7.97;;;6.93;;
71091;SDS011;58751;50.708;7.134;2022-12-07T10:22:09;10.13;;;7.38;;
71091;SDS011;58751;50.708;7.134;2022-12-07T10:24:36;9.88;;;7.05;;
71091;SDS011;58751;50.708;7.134;2022-12-07T10:27:01;11.00;;;7.40;;
71091;SDS011;58751;50.708;7.134;2022-12-07T10:29:28;12.70;;;6.90;;
71091;SDS011;58751;50.708;7.134;2022-12-07T10:31:54;10.02;;;6.63;;
71091;SDS011;58751;50.708;7.134;2022-12-07T10:34:21;10.43;;;7.05;;
71091;SDS011;58751;50.708;7.134;2022-12-07T10:36:47;9.00;;;5.75;;
71091;SDS011;58751;50.708;7.134;2022-12-07T10:39:12;9.53;;;6.73;;
71091;SDS011;58751;50.708;7.134;2022-12-07T10:41:52;8.52;;;6.00;;
71091;SDS011;58751;50.708;7.134;2022-12-07T10:44:19;10.02;;;6.45;;
71091;SDS011;58751;50.708;7.134;2022-12-07T10:52:32;14.73;;;7.03;;
71091;SDS011;58751;50.708;7.134;2022-12-07T10:55:03;6.30;;;5.70;;
71091;SDS011;58751;50.708;7.134;2022-12-07T10:57:37;8.65;;;6.07;;
71091;SDS011;58751;50.708;7.134;2022-12-07T11:00:08;8.00;;;6.32;;
71091;SDS011;58751;50.708;7.134;2022-12-07T11:02:39;12.13;;;6.85;;
71091;SDS011;58751;50.708;7.134;2022-12-07T11:05:09;7.30;;;5.57;;
71091;SDS011;58751;50.708;7.134;2022-12-07T11:07:39;10.52;;;6.55;;
71091;SDS011;58751;50.708;7.134;2022-12-07T11:10:08;9.00;;;6.10;;
71091;SDS011;58751;50.708;7.134;2022-12-07T11:12:43;13.77;;;6.05;;
71091;SDS011;58751;50.708;7.134;2022-12-07T11:15:13;8.00;;;6.28;;
71091;SDS011;58751;50.708;7.134;2022-12-07T11:17:42;7.78;;;5.95;;
71091;SDS011;58751;50.708;7.134;2022-12-07T11:20:13;16.92;;;4.80;;
71091;SDS011;58751;50.708;7.134;2022-12-07T11:22:41;7.72;;;5.00;;
71091;SDS011;58751;50.708;7.134;2022-12-07T11:25:14;9.00;;;5.88;;
71091;SDS011;58751;50.708;7.134;2022-12-07T11:27:43;10.70;;;5.45;;
71091;SDS011;58751;50.708;7.134;2022-12-07T11:30:14;8.55;;;5.07;;
71091;SDS011;58751;50.708;7.134;2022-12-07T11:32:47;7.32;;;5.38;;
71091;SDS011;58751;50.708;7.134;2022-12-07T11:35:16;9.38;;;4.70;;
71091;SDS011;58751;50.708;7.134;2022-12-07T11:37:43;5.78;;;4.05;;
71091;SDS011;58751;50.708;7.134;2022-12-07T11:40:13;4.47;;;3.60;;
71091;SDS011;58751;50.708;7.134;2022-12-07T11:42:42;5.57;;;4.00;;
71091;SDS011;58751;50.708;7.134;2022-12-07T11:45:10;7.35;;;3.75;;
71091;SDS011;58751;50.708;7.134;2022-12-07T11:47:40;5.30;;;3.25;;
71091;SDS011;58751;50.708;7.134;2022-12-07T11:50:14;7.85;;;4.40;;
71091;SDS011;58751;50.708;7.134;2022-12-07T11:52:43;6.10;;;3.70;;
71091;SDS011;58751;50.708;7.134;2022-12-07T11:55:14;2.95;;;2.65;;
71091;SDS011;58751;50.708;7.134;2022-12-07T11:57:44;8.65;;;3.35;;
71091;SDS011;58751;50.708;7.134;2022-12-07T12:00:12;4.03;;;3.42;;
71091;SDS011;58751;50.708;7.134;2022-12-07T12:02:41;9.23;;;3.78;;
71091;SDS011;58751;50.708;7.134;2022-12-07T12:05:12;8.68;;;4.57;;
71091;SDS011;58751;50.708;7.134;2022-12-07T12:07:38;5.72;;;3.47;;
71091;SDS011;58751;50.708;7.134;2022-12-07T12:10:05;6.40;;;3.53;;
71091;SDS011;58751;50.708;7.134;2022-12-07T12:12:36;4.78;;;3.50;;
71091;SDS011;58751;50.708;7.134;2022-12-07T12:15:13;8.23;;;3.40;;
71091;SDS011;58751;50.708;7.134;2022-12-07T12:17:50;4.35;;;3.33;;
71091;SDS011;58751;50.708;7.134;2022-12-07T12:20:21;6.80;;;3.85;;
71091;SDS011;58751;50.708;7.134;2022-12-07T12:22:49;4.57;;;3.33;;
71091;SDS011;58751;50.708;7.134;2022-12-07T12:25:18;5.70;;;3.33;;
71091;SDS011;58751;50.708;7.134;2022-12-07T12:27:45;6.10;;;3.15;;
71091;SDS011;58751;50.708;7.134;2022-12-07T12:30:24;5.78;;;4.00;;
71091;SDS011;58751;50.708;7.134;2022-12-07T12:32:50;5.05;;;3.47;;
71091;SDS011;58751;50.708;7.134;2022-12-07T12:35:26;10.17;;;4.20;;
71091;SDS011;58751;50.708;7.134;2022-12-07T12:37:53;7.80;;;4.57;;
71091;SDS011;58751;50.708;7.134;2022-12-07T12:48:42;4.50;;;3.55;;
71091;SDS011;58751;50.708;7.134;2022-12-07T12:53:51;6.70;;;4.35;;
71091;SDS011;58751;50.708;7.134;2022-12-07T12:56:23;8.20;;;5.17;;
71091;SDS011;58751;50.708;7.134;2022-12-07T13:01:37;10.88;;;4.13;;
71091;SDS011;58751;50.708;7.134;2022-12-07T13:04:13;8.65;;;4.68;;
71091;SDS011;58751;50.708;7.134;2022-12-07T13:06:39;7.93;;;4.35;;
71091;SDS011;58751;50.708;7.134;2022-12-07T13:09:15;7.13;;;4.07;;
71091;SDS011;58751;50.708;7.134;2022-12-07T13:11:43;8.27;;;4.47;;
71091;SDS011;58751;50.708;7.134;2022-12-07T13:16:53;5.88;;;4.25;;
71091;SDS011;58751;50.708;7.134;2022-12-07T13:24:48;6.57;;;5.10;;
71091;SDS011;58751;50.708;7.134;2022-12-07T13:27:14;8.88;;;5.15;;
71091;SDS011;58751;50.708;7.134;2022-12-07T13:29:39;5.83;;;4.17;;
71091;SDS011;58751;50.708;7.134;2022-12-07T13:32:04;7.10;;;4.80;;
71091;SDS011;58751;50.708;7.134;2022-12-07T13:34:31;9.80;;;4.50;;
71091;SDS011;58751;50.708;7.134;2022-12-07T13:36:56;5.85;;;4.30;;
71091;SDS011;58751;50.708;7.134;2022-12-07T13:39:23;5.97;;;4.83;;
71091;SDS011;58751;50.708;7.134;2022-12-07T13:41:50;5.55;;;4.30;;
71091;SDS011;58751;50.708;7.134;2022-12-07T13:44:16;7.65;;;5.32;;
71091;SDS011;58751;50.708;7.134;2022-12-07T13:46:44;7.20;;;4.73;;
71091;SDS011;58751;50.708;7.134;2022-12-07T13:49:18;8.75;;;5.90;;
71091;SDS011;58751;50.708;7.134;2022-12-07T13:51:44;8.60;;;6.22;;
71091;SDS011;58751;50.708;7.134;2022-12-07T13:54:10;10.33;;;4.50;;
71091;SDS011;58751;50.708;7.134;2022-12-07T13:56:35;6.43;;;4.28;;
71091;SDS011;58751;50.708;7.134;2022-12-07T13:59:02;12.27;;;5.23;;
71091;SDS011;58751;50.708;7.134;2022-12-07T14:01:28;15.35;;;5.55;;
71091;SDS011;58751;50.708;7.134;2022-12-07T14:03:53;8.63;;;5.57;;
71091;SDS011;58751;50.708;7.134;2022-12-07T14:06:25;5.93;;;5.20;;
71091;SDS011;58751;50.708;7.134;2022-12-07T14:08:50;9.80;;;4.57;;
71091;SDS011;58751;50.708;7.134;2022-12-07T14:11:17;7.63;;;5.20;;
71091;SDS011;58751;50.708;7.134;2022-12-07T14:13:51;10.75;;;4.85;;
71091;SDS011;58751;50.708;7.134;2022-12-07T14:16:21;4.70;;;3.10;;
71091;SDS011;58751;50.708;7.134;2022-12-07T14:18:47;3.63;;;2.63;;
71091;SDS011;58751;50.708;7.134;2022-12-07T14:21:14;4.67;;;2.20;;
71091;SDS011;58751;50.708;7.134;2022-12-07T14:23:40;4.80;;;2.58;;
71091;SDS011;58751;50.708;7.134;2022-12-07T14:26:06;5.20;;;2.13;;
71091;SDS011;58751;50.708;7.134;2022-12-07T14:28:32;3.83;;;2.42;;
71091;SDS011;58751;50.708;7.134;2022-12-07T14:30:58;9.10;;;4.13;;
71091;SDS011;58751;50.708;7.134;2022-12-07T14:33:25;5.50;;;3.67;;
71091;SDS011;58751;50.708;7.134;2022-12-07T14:35:50;6.03;;;3.40;;
71091;SDS011;58751;50.708;7.134;2022-12-07T14:38:15;3.43;;;2.30;;
71091;SDS011;58751;50.708;7.134;2022-12-07T14:40:40;3.27;;;2.37;;
71091;SDS011;58751;50.708;7.134;2022-12-07T14:43:08;3.43;;;2.90;;
71091;SDS011;58751;50.708;7.134;2022-12-07T14:45:34;3.25;;;2.92;;
71091;SDS011;58751;50.708;7.134;2022-12-07T14:47:59;4.53;;;3.00;;
71091;SDS011;58751;50.708;7.134;2022-12-07T14:50:25;4.60;;;2.73;;
71091;SDS011;58751;50.708;7.134;2022-12-07T14:52:51;5.28;;;3.40;;
71091;SDS011;58751;50.708;7.134;2022-12-07T14:55:20;5.88;;;3.67;;